Weather at Kroonstad Airport

Public forecast

Using degrees Celsius for public forecast. Weather courtesy of forecast.io.

Closest aviation weather report (METAR) to Kroonstad Airport

Report is more than 6 hours old.

Closest report is Vereeniging Airport, 74.2 nm (137.4 km) NNE.

2022/11/14 15:00 (retrieved 2 years ago)

FAVV 141500Z AUTO 03003KT //// // ////// 23/10 Q1024

Closest aviation forecast (TAF) to Kroonstad Airport

Forecast is more than 12 hours old.

Closest forecast is OR Tambo International Airport, 104.0 nm (192.7 km) NNE.

2023/02/22 18:00 (retrieved 1 year ago)

TAF FAOR 221600Z 2218/2324 VRB03KT CAVOK TX24/2313Z TN13/2303Z PROB30 TEMPO 2302/2305 5000 BR BKN008 FM230600 VRB03KT 9999 SCT016 FM230800 VRB03KT CAVOK